sensor_id;sensor_type;location;lat;lon;timestamp;P1;durP1;ratioP1;P2;durP2;ratioP2
50575;SDS011;76633;45.642;12.198;2024-02-21T00:00:54;56.85;;;50.67;;
50575;SDS011;76633;45.642;12.198;2024-02-21T00:03:20;57.40;;;49.00;;
50575;SDS011;76633;45.642;12.198;2024-02-21T00:05:45;57.83;;;50.13;;
50575;SDS011;76633;45.642;12.198;2024-02-21T00:08:11;53.67;;;47.95;;
50575;SDS011;76633;45.642;12.198;2024-02-21T00:10:37;58.42;;;48.58;;
50575;SDS011;76633;45.642;12.198;2024-02-21T00:13:03;55.75;;;46.20;;
50575;SDS011;76633;45.642;12.198;2024-02-21T00:15:29;51.88;;;45.10;;
50575;SDS011;76633;45.642;12.198;2024-02-21T00:17:54;48.95;;;42.47;;
50575;SDS011;76633;45.642;12.198;2024-02-21T00:20:20;47.90;;;41.80;;
50575;SDS011;76633;45.642;12.198;2024-02-21T00:22:46;45.90;;;40.90;;
50575;SDS011;76633;45.642;12.198;2024-02-21T00:25:11;46.33;;;41.28;;
50575;SDS011;76633;45.642;12.198;2024-02-21T00:27:37;46.63;;;41.67;;
50575;SDS011;76633;45.642;12.198;2024-02-21T00:30:04;46.50;;;40.75;;
50575;SDS011;76633;45.642;12.198;2024-02-21T00:32:30;44.20;;;39.10;;
50575;SDS011;76633;45.642;12.198;2024-02-21T00:34:57;43.78;;;38.75;;
50575;SDS011;76633;45.642;12.198;2024-02-21T00:37:22;42.33;;;37.45;;
50575;SDS011;76633;45.642;12.198;2024-02-21T00:39:48;45.50;;;39.03;;
50575;SDS011;76633;45.642;12.198;2024-02-21T00:42:14;45.15;;;37.40;;
50575;SDS011;76633;45.642;12.198;2024-02-21T00:44:39;42.45;;;37.90;;
50575;SDS011;76633;45.642;12.198;2024-02-21T00:47:05;43.30;;;38.50;;
50575;SDS011;76633;45.642;12.198;2024-02-21T00:49:31;43.38;;;38.47;;
50575;SDS011;76633;45.642;12.198;2024-02-21T00:51:56;43.00;;;37.70;;
50575;SDS011;76633;45.642;12.198;2024-02-21T00:54:22;43.83;;;37.45;;
50575;SDS011;76633;45.642;12.198;2024-02-21T00:56:48;40.90;;;35.20;;
50575;SDS011;76633;45.642;12.198;2024-02-21T00:59:13;37.55;;;33.08;;
50575;SDS011;76633;45.642;12.198;2024-02-21T01:01:39;37.47;;;33.33;;
50575;SDS011;76633;45.642;12.198;2024-02-21T01:04:07;39.53;;;33.20;;
50575;SDS011;76633;45.642;12.198;2024-02-21T01:06:34;38.33;;;33.17;;
50575;SDS011;76633;45.642;12.198;2024-02-21T01:09:00;39.00;;;34.42;;
50575;SDS011;76633;45.642;12.198;2024-02-21T01:11:25;37.17;;;32.95;;
50575;SDS011;76633;45.642;12.198;2024-02-21T01:13:51;37.35;;;32.95;;
50575;SDS011;76633;45.642;12.198;2024-02-21T01:16:17;33.20;;;29.50;;
50575;SDS011;76633;45.642;12.198;2024-02-21T01:18:42;34.90;;;31.17;;
50575;SDS011;76633;45.642;12.198;2024-02-21T01:21:08;34.67;;;28.70;;
50575;SDS011;76633;45.642;12.198;2024-02-21T01:23:35;32.63;;;29.17;;
50575;SDS011;76633;45.642;12.198;2024-02-21T01:26:02;32.35;;;27.90;;
50575;SDS011;76633;45.642;12.198;2024-02-21T01:28:28;30.88;;;27.70;;
50575;SDS011;76633;45.642;12.198;2024-02-21T01:30:54;30.50;;;27.30;;
50575;SDS011;76633;45.642;12.198;2024-02-21T01:33:19;33.40;;;26.88;;
50575;SDS011;76633;45.642;12.198;2024-02-21T01:35:45;29.17;;;26.05;;
50575;SDS011;76633;45.642;12.198;2024-02-21T01:38:12;30.58;;;25.98;;
50575;SDS011;76633;45.642;12.198;2024-02-21T01:40:38;29.13;;;25.92;;
50575;SDS011;76633;45.642;12.198;2024-02-21T01:43:14;31.63;;;26.45;;
50575;SDS011;76633;45.642;12.198;2024-02-21T01:45:46;27.55;;;24.10;;
50575;SDS011;76633;45.642;12.198;2024-02-21T01:48:13;28.20;;;25.23;;
50575;SDS011;76633;45.642;12.198;2024-02-21T01:50:39;31.88;;;25.10;;
50575;SDS011;76633;45.642;12.198;2024-02-21T01:53:05;28.45;;;25.25;;
50575;SDS011;76633;45.642;12.198;2024-02-21T01:55:32;27.20;;;24.30;;
50575;SDS011;76633;45.642;12.198;2024-02-21T01:57:58;28.88;;;25.77;;
50575;SDS011;76633;45.642;12.198;2024-02-21T02:00:24;27.38;;;24.58;;
50575;SDS011;76633;45.642;12.198;2024-02-21T02:02:50;39.25;;;30.83;;
50575;SDS011;76633;45.642;12.198;2024-02-21T02:05:16;31.55;;;28.05;;
50575;SDS011;76633;45.642;12.198;2024-02-21T02:07:43;32.50;;;26.25;;
50575;SDS011;76633;45.642;12.198;2024-02-21T02:10:09;36.35;;;28.77;;
50575;SDS011;76633;45.642;12.198;2024-02-21T02:12:35;30.73;;;26.25;;
50575;SDS011;76633;45.642;12.198;2024-02-21T02:15:02;30.27;;;27.08;;
50575;SDS011;76633;45.642;12.198;2024-02-21T02:17:31;28.92;;;25.55;;
50575;SDS011;76633;45.642;12.198;2024-02-21T02:19:57;26.70;;;23.90;;
50575;SDS011;76633;45.642;12.198;2024-02-21T02:22:24;28.30;;;23.70;;
50575;SDS011;76633;45.642;12.198;2024-02-21T02:24:57;28.15;;;23.70;;
50575;SDS011;76633;45.642;12.198;2024-02-21T02:27:23;25.67;;;22.80;;
50575;SDS011;76633;45.642;12.198;2024-02-21T02:29:49;26.67;;;22.27;;
50575;SDS011;76633;45.642;12.198;2024-02-21T02:32:16;25.67;;;22.98;;
50575;SDS011;76633;45.642;12.198;2024-02-21T02:34:41;24.90;;;22.27;;
50575;SDS011;76633;45.642;12.198;2024-02-21T02:37:07;25.45;;;21.63;;
50575;SDS011;76633;45.642;12.198;2024-02-21T02:39:33;29.75;;;22.80;;
50575;SDS011;76633;45.642;12.198;2024-02-21T02:41:58;27.60;;;22.52;;
50575;SDS011;76633;45.642;12.198;2024-02-21T02:44:24;26.45;;;22.15;;
50575;SDS011;76633;45.642;12.198;2024-02-21T02:46:50;24.55;;;21.65;;
50575;SDS011;76633;45.642;12.198;2024-02-21T02:49:16;24.77;;;22.15;;
50575;SDS011;76633;45.642;12.198;2024-02-21T02:51:42;25.15;;;22.58;;
50575;SDS011;76633;45.642;12.198;2024-02-21T02:54:08;25.58;;;22.50;;
50575;SDS011;76633;45.642;12.198;2024-02-21T02:56:34;24.63;;;22.02;;
50575;SDS011;76633;45.642;12.198;2024-02-21T02:59:00;25.25;;;22.52;;
50575;SDS011;76633;45.642;12.198;2024-02-21T03:01:26;25.55;;;22.60;;
50575;SDS011;76633;45.642;12.198;2024-02-21T03:03:52;25.95;;;22.33;;
50575;SDS011;76633;45.642;12.198;2024-02-21T03:06:18;26.90;;;24.00;;
50575;SDS011;76633;45.642;12.198;2024-02-21T03:08:44;26.95;;;23.92;;
50575;SDS011;76633;45.642;12.198;2024-02-21T03:11:10;26.73;;;22.95;;
50575;SDS011;76633;45.642;12.198;2024-02-21T03:13:36;26.13;;;23.25;;
50575;SDS011;76633;45.642;12.198;2024-02-21T03:16:01;25.55;;;22.70;;
50575;SDS011;76633;45.642;12.198;2024-02-21T03:18:27;24.42;;;21.83;;
50575;SDS011;76633;45.642;12.198;2024-02-21T03:20:53;26.83;;;23.35;;
50575;SDS011;76633;45.642;12.198;2024-02-21T03:23:19;25.15;;;22.45;;
50575;SDS011;76633;45.642;12.198;2024-02-21T03:25:44;25.00;;;22.05;;
50575;SDS011;76633;45.642;12.198;2024-02-21T03:28:10;29.17;;;23.13;;
50575;SDS011;76633;45.642;12.198;2024-02-21T03:30:36;25.17;;;22.52;;
50575;SDS011;76633;45.642;12.198;2024-02-21T03:33:02;27.10;;;22.77;;
50575;SDS011;76633;45.642;12.198;2024-02-21T03:35:28;24.05;;;21.60;;
50575;SDS011;76633;45.642;12.198;2024-02-21T03:37:54;25.20;;;22.60;;
50575;SDS011;76633;45.642;12.198;2024-02-21T03:40:19;26.67;;;22.33;;
50575;SDS011;76633;45.642;12.198;2024-02-21T03:42:45;26.17;;;22.98;;
50575;SDS011;76633;45.642;12.198;2024-02-21T03:45:11;24.83;;;21.83;;
50575;SDS011;76633;45.642;12.198;2024-02-21T03:47:36;25.65;;;22.95;;
50575;SDS011;76633;45.642;12.198;2024-02-21T03:50:03;27.30;;;24.40;;
50575;SDS011;76633;45.642;12.198;2024-02-21T03:52:29;28.27;;;23.65;;
50575;SDS011;76633;45.642;12.198;2024-02-21T03:54:55;30.92;;;24.90;;
50575;SDS011;76633;45.642;12.198;2024-02-21T03:57:20;27.58;;;23.88;;
50575;SDS011;76633;45.642;12.198;2024-02-21T03:59:46;26.20;;;22.17;;
50575;SDS011;76633;45.642;12.198;2024-02-21T04:02:15;25.05;;;22.23;;
50575;SDS011;76633;45.642;12.198;2024-02-21T04:04:43;26.13;;;23.42;;
50575;SDS011;76633;45.642;12.198;2024-02-21T04:07:11;27.02;;;23.75;;
50575;SDS011;76633;45.642;12.198;2024-02-21T04:09:37;27.33;;;22.80;;
50575;SDS011;76633;45.642;12.198;2024-02-21T04:12:03;28.73;;;23.60;;
50575;SDS011;76633;45.642;12.198;2024-02-21T04:14:29;25.25;;;21.77;;
50575;SDS011;76633;45.642;12.198;2024-02-21T04:16:55;25.45;;;22.52;;
50575;SDS011;76633;45.642;12.198;2024-02-21T04:19:20;26.23;;;23.48;;
50575;SDS011;76633;45.642;12.198;2024-02-21T04:21:46;26.52;;;22.85;;
50575;SDS011;76633;45.642;12.198;2024-02-21T04:24:12;25.42;;;22.65;;
50575;SDS011;76633;45.642;12.198;2024-02-21T04:26:37;24.58;;;21.38;;
50575;SDS011;76633;45.642;12.198;2024-02-21T04:29:04;25.95;;;22.38;;
50575;SDS011;76633;45.642;12.198;2024-02-21T04:31:31;24.63;;;21.65;;
50575;SDS011;76633;45.642;12.198;2024-02-21T04:33:57;26.25;;;23.45;;
50575;SDS011;76633;45.642;12.198;2024-02-21T04:36:23;26.95;;;24.15;;
50575;SDS011;76633;45.642;12.198;2024-02-21T04:38:49;26.50;;;23.65;;
50575;SDS011;76633;45.642;12.198;2024-02-21T04:41:15;28.50;;;24.00;;
50575;SDS011;76633;45.642;12.198;2024-02-21T04:43:41;25.63;;;22.85;;
50575;SDS011;76633;45.642;12.198;2024-02-21T04:46:06;28.05;;;22.52;;
50575;SDS011;76633;45.642;12.198;2024-02-21T04:48:32;25.60;;;22.98;;
50575;SDS011;76633;45.642;12.198;2024-02-21T04:50:58;23.48;;;20.98;;
50575;SDS011;76633;45.642;12.198;2024-02-21T04:53:24;24.83;;;22.02;;
50575;SDS011;76633;45.642;12.198;2024-02-21T04:55:50;24.60;;;21.98;;
50575;SDS011;76633;45.642;12.198;2024-02-21T04:58:15;25.55;;;22.85;;
50575;SDS011;76633;45.642;12.198;2024-02-21T05:00:41;25.80;;;22.40;;
50575;SDS011;76633;45.642;12.198;2024-02-21T05:03:07;25.10;;;21.58;;
50575;SDS011;76633;45.642;12.198;2024-02-21T05:05:32;25.73;;;22.65;;
50575;SDS011;76633;45.642;12.198;2024-02-21T05:07:58;24.33;;;21.70;;
50575;SDS011;76633;45.642;12.198;2024-02-21T05:10:24;26.50;;;20.63;;
50575;SDS011;76633;45.642;12.198;2024-02-21T05:12:49;23.45;;;18.75;;
50575;SDS011;76633;45.642;12.198;2024-02-21T05:15:15;23.20;;;20.25;;
50575;SDS011;76633;45.642;12.198;2024-02-21T05:17:40;24.23;;;20.95;;
50575;SDS011;76633;45.642;12.198;2024-02-21T05:20:08;21.75;;;19.45;;
50575;SDS011;76633;45.642;12.198;2024-02-21T05:22:34;22.65;;;20.25;;
50575;SDS011;76633;45.642;12.198;2024-02-21T05:24:59;22.65;;;19.33;;
50575;SDS011;76633;45.642;12.198;2024-02-21T05:27:25;21.58;;;18.35;;
50575;SDS011;76633;45.642;12.198;2024-02-21T05:29:51;23.55;;;17.85;;
50575;SDS011;76633;45.642;12.198;2024-02-21T05:32:18;22.70;;;19.42;;
50575;SDS011;76633;45.642;12.198;2024-02-21T05:34:44;23.80;;;19.58;;
50575;SDS011;76633;45.642;12.198;2024-02-21T05:37:09;23.23;;;17.88;;
50575;SDS011;76633;45.642;12.198;2024-02-21T05:39:35;21.92;;;18.73;;
50575;SDS011;76633;45.642;12.198;2024-02-21T05:42:00;22.23;;;18.85;;
50575;SDS011;76633;45.642;12.198;2024-02-21T05:44:26;27.95;;;20.80;;
50575;SDS011;76633;45.642;12.198;2024-02-21T05:46:52;27.40;;;22.58;;
50575;SDS011;76633;45.642;12.198;2024-02-21T05:49:18;27.50;;;21.90;;
50575;SDS011;76633;45.642;12.198;2024-02-21T05:51:43;26.80;;;19.85;;
50575;SDS011;76633;45.642;12.198;2024-02-21T05:54:09;23.67;;;19.50;;
50575;SDS011;76633;45.642;12.198;2024-02-21T05:56:35;23.17;;;19.85;;
50575;SDS011;76633;45.642;12.198;2024-02-21T05:59:00;25.58;;;20.15;;
50575;SDS011;76633;45.642;12.198;2024-02-21T06:01:26;27.05;;;19.48;;
50575;SDS011;76633;45.642;12.198;2024-02-21T06:03:52;26.13;;;20.33;;
50575;SDS011;76633;45.642;12.198;2024-02-21T06:06:19;33.70;;;19.92;;
50575;SDS011;76633;45.642;12.198;2024-02-21T06:08:46;25.55;;;19.58;;
50575;SDS011;76633;45.642;12.198;2024-02-21T06:11:12;24.60;;;20.05;;
50575;SDS011;76633;45.642;12.198;2024-02-21T06:13:40;25.77;;;19.60;;
50575;SDS011;76633;45.642;12.198;2024-02-21T06:16:06;26.05;;;21.10;;
50575;SDS011;76633;45.642;12.198;2024-02-21T06:18:32;26.00;;;19.65;;
50575;SDS011;76633;45.642;12.198;2024-02-21T06:21:00;24.30;;;20.70;;
50575;SDS011;76633;45.642;12.198;2024-02-21T06:23:26;25.65;;;20.67;;
50575;SDS011;76633;45.642;12.198;2024-02-21T06:25:52;27.98;;;19.98;;
50575;SDS011;76633;45.642;12.198;2024-02-21T06:28:17;27.55;;;22.02;;
50575;SDS011;76633;45.642;12.198;2024-02-21T06:30:43;29.95;;;21.92;;
50575;SDS011;76633;45.642;12.198;2024-02-21T06:33:09;23.48;;;20.33;;
50575;SDS011;76633;45.642;12.198;2024-02-21T06:35:34;29.15;;;20.98;;
50575;SDS011;76633;45.642;12.198;2024-02-21T06:38:00;24.33;;;20.63;;
50575;SDS011;76633;45.642;12.198;2024-02-21T06:40:25;28.63;;;21.10;;
50575;SDS011;76633;45.642;12.198;2024-02-21T06:42:51;25.73;;;19.88;;
50575;SDS011;76633;45.642;12.198;2024-02-21T06:45:17;24.75;;;21.25;;
50575;SDS011;76633;45.642;12.198;2024-02-21T06:47:43;31.63;;;21.85;;
50575;SDS011;76633;45.642;12.198;2024-02-21T06:50:09;24.50;;;19.63;;
50575;SDS011;76633;45.642;12.198;2024-02-21T06:52:35;27.35;;;21.88;;
50575;SDS011;76633;45.642;12.198;2024-02-21T06:55:01;24.65;;;20.70;;
50575;SDS011;76633;45.642;12.198;2024-02-21T06:57:28;30.50;;;20.42;;
50575;SDS011;76633;45.642;12.198;2024-02-21T06:59:54;29.23;;;19.73;;
50575;SDS011;76633;45.642;12.198;2024-02-21T07:02:20;26.42;;;19.45;;
50575;SDS011;76633;45.642;12.198;2024-02-21T07:04:45;24.65;;;18.52;;
50575;SDS011;76633;45.642;12.198;2024-02-21T07:07:11;24.70;;;18.45;;
50575;SDS011;76633;45.642;12.198;2024-02-21T07:09:37;21.35;;;19.00;;
50575;SDS011;76633;45.642;12.198;2024-02-21T07:12:03;23.42;;;18.48;;
50575;SDS011;76633;45.642;12.198;2024-02-21T07:14:30;19.10;;;16.98;;
50575;SDS011;76633;45.642;12.198;2024-02-21T07:16:57;22.48;;;18.23;;
50575;SDS011;76633;45.642;12.198;2024-02-21T07:19:23;20.38;;;17.08;;
50575;SDS011;76633;45.642;12.198;2024-02-21T07:21:48;19.55;;;15.02;;
50575;SDS011;76633;45.642;12.198;2024-02-21T07:24:14;20.65;;;15.60;;
50575;SDS011;76633;45.642;12.198;2024-02-21T07:26:43;20.50;;;16.10;;
50575;SDS011;76633;45.642;12.198;2024-02-21T07:29:09;20.85;;;16.48;;
50575;SDS011;76633;45.642;12.198;2024-02-21T07:31:41;24.88;;;16.27;;
50575;SDS011;76633;45.642;12.198;2024-02-21T07:34:08;18.92;;;16.92;;
50575;SDS011;76633;45.642;12.198;2024-02-21T07:36:34;20.90;;;17.02;;
50575;SDS011;76633;45.642;12.198;2024-02-21T07:38:59;22.33;;;17.45;;
50575;SDS011;76633;45.642;12.198;2024-02-21T07:41:25;18.58;;;16.58;;
50575;SDS011;76633;45.642;12.198;2024-02-21T07:43:51;26.52;;;20.42;;
50575;SDS011;76633;45.642;12.198;2024-02-21T07:46:17;31.23;;;18.45;;
50575;SDS011;76633;45.642;12.198;2024-02-21T07:48:45;27.55;;;16.90;;
50575;SDS011;76633;45.642;12.198;2024-02-21T07:51:11;20.60;;;15.60;;
50575;SDS011;76633;45.642;12.198;2024-02-21T07:53:36;19.55;;;15.90;;
50575;SDS011;76633;45.642;12.198;2024-02-21T07:56:03;18.98;;;15.98;;
50575;SDS011;76633;45.642;12.198;2024-02-21T07:58:29;25.10;;;16.27;;
50575;SDS011;76633;45.642;12.198;2024-02-21T08:00:55;18.73;;;16.50;;
50575;SDS011;76633;45.642;12.198;2024-02-21T08:03:21;24.45;;;17.42;;
50575;SDS011;76633;45.642;12.198;2024-02-21T08:05:47;21.27;;;16.80;;
50575;SDS011;76633;45.642;12.198;2024-02-21T08:08:13;22.90;;;17.73;;
50575;SDS011;76633;45.642;12.198;2024-02-21T08:10:43;21.85;;;16.80;;
50575;SDS011;76633;45.642;12.198;2024-02-21T08:13:10;18.90;;;15.52;;
50575;SDS011;76633;45.642;12.198;2024-02-21T08:15:36;19.42;;;16.63;;
50575;SDS011;76633;45.642;12.198;2024-02-21T08:18:04;20.67;;;16.95;;
50575;SDS011;76633;45.642;12.198;2024-02-21T08:20:30;25.13;;;17.25;;
50575;SDS011;76633;45.642;12.198;2024-02-21T08:22:56;21.55;;;15.85;;
50575;SDS011;76633;45.642;12.198;2024-02-21T08:25:21;26.42;;;17.52;;
50575;SDS011;76633;45.642;12.198;2024-02-21T08:27:47;18.75;;;16.48;;
50575;SDS011;76633;45.642;12.198;2024-02-21T08:30:13;21.02;;;16.42;;
50575;SDS011;76633;45.642;12.198;2024-02-21T08:32:39;19.48;;;15.07;;
50575;SDS011;76633;45.642;12.198;2024-02-21T08:35:05;16.88;;;15.07;;
50575;SDS011;76633;45.642;12.198;2024-02-21T08:37:31;18.73;;;15.00;;
50575;SDS011;76633;45.642;12.198;2024-02-21T08:39:56;20.25;;;14.73;;
50575;SDS011;76633;45.642;12.198;2024-02-21T08:42:22;16.10;;;13.48;;
50575;SDS011;76633;45.642;12.198;2024-02-21T08:44:48;18.42;;;15.10;;
50575;SDS011;76633;45.642;12.198;2024-02-21T08:47:14;17.52;;;13.43;;
50575;SDS011;76633;45.642;12.198;2024-02-21T08:49:40;13.93;;;12.38;;
50575;SDS011;76633;45.642;12.198;2024-02-21T08:52:06;13.68;;;12.20;;
50575;SDS011;76633;45.642;12.198;2024-02-21T08:54:32;14.40;;;11.77;;
50575;SDS011;76633;45.642;12.198;2024-02-21T08:56:58;14.90;;;11.98;;
50575;SDS011;76633;45.642;12.198;2024-02-21T08:59:24;12.45;;;11.25;;
50575;SDS011;76633;45.642;12.198;2024-02-21T09:01:51;14.05;;;11.70;;
50575;SDS011;76633;45.642;12.198;2024-02-21T09:04:19;14.30;;;11.13;;
50575;SDS011;76633;45.642;12.198;2024-02-21T09:06:45;14.77;;;10.50;;
50575;SDS011;76633;45.642;12.198;2024-02-21T09:09:11;12.93;;;10.80;;
50575;SDS011;76633;45.642;12.198;2024-02-21T09:11:37;12.50;;;11.18;;
50575;SDS011;76633;45.642;12.198;2024-02-21T09:14:03;12.85;;;11.32;;
50575;SDS011;76633;45.642;12.198;2024-02-21T09:16:32;10.52;;;9.35;;
50575;SDS011;76633;45.642;12.198;2024-02-21T09:18:58;8.70;;;7.15;;
50575;SDS011;76633;45.642;12.198;2024-02-21T09:21:24;5.68;;;5.13;;
50575;SDS011;76633;45.642;12.198;2024-02-21T09:23:49;5.25;;;4.75;;
50575;SDS011;76633;45.642;12.198;2024-02-21T09:26:15;7.85;;;6.82;;
50575;SDS011;76633;45.642;12.198;2024-02-21T09:28:42;7.15;;;6.45;;
50575;SDS011;76633;45.642;12.198;2024-02-21T09:31:09;3.45;;;3.13;;
50575;SDS011;76633;45.642;12.198;2024-02-21T09:33:35;4.70;;;4.30;;
50575;SDS011;76633;45.642;12.198;2024-02-21T09:36:00;6.53;;;5.65;;
50575;SDS011;76633;45.642;12.198;2024-02-21T09:38:26;8.93;;;5.75;;
50575;SDS011;76633;45.642;12.198;2024-02-21T09:41:37;5.95;;;5.45;;
50575;SDS011;76633;45.642;12.198;2024-02-21T09:46:17;7.53;;;5.97;;
50575;SDS011;76633;45.642;12.198;2024-02-21T09:51:12;5.00;;;4.55;;
50575;SDS011;76633;45.642;12.198;2024-02-21T09:53:39;6.18;;;5.07;;
50575;SDS011;76633;45.642;12.198;2024-02-21T09:56:09;11.40;;;5.10;;
50575;SDS011;76633;45.642;12.198;2024-02-21T09:58:36;8.35;;;5.20;;
50575;SDS011;76633;45.642;12.198;2024-02-21T10:01:02;5.20;;;4.80;;
50575;SDS011;76633;45.642;12.198;2024-02-21T10:03:31;7.82;;;5.60;;
50575;SDS011;76633;45.642;12.198;2024-02-21T10:06:00;6.93;;;5.85;;
50575;SDS011;76633;45.642;12.198;2024-02-21T10:08:26;6.03;;;5.53;;
50575;SDS011;76633;45.642;12.198;2024-02-21T10:10:52;13.40;;;6.05;;
50575;SDS011;76633;45.642;12.198;2024-02-21T10:16:06;10.35;;;5.72;;
50575;SDS011;76633;45.642;12.198;2024-02-21T10:18:33;6.38;;;5.88;;
50575;SDS011;76633;45.642;12.198;2024-02-21T10:21:06;6.55;;;5.30;;
50575;SDS011;76633;45.642;12.198;2024-02-21T10:23:45;7.28;;;5.15;;
50575;SDS011;76633;45.642;12.198;2024-02-21T10:26:15;5.75;;;4.70;;
50575;SDS011;76633;45.642;12.198;2024-02-21T10:28:42;5.53;;;5.00;;
50575;SDS011;76633;45.642;12.198;2024-02-21T10:31:10;5.45;;;4.80;;
50575;SDS011;76633;45.642;12.198;2024-02-21T10:33:39;4.47;;;4.07;;
50575;SDS011;76633;45.642;12.198;2024-02-21T10:36:06;4.95;;;4.50;;
50575;SDS011;76633;45.642;12.198;2024-02-21T10:38:34;5.00;;;4.60;;
50575;SDS011;76633;45.642;12.198;2024-02-21T10:41:00;4.72;;;4.32;;
50575;SDS011;76633;45.642;12.198;2024-02-21T10:43:28;4.57;;;4.20;;
50575;SDS011;76633;45.642;12.198;2024-02-21T10:45:59;6.35;;;4.25;;
50575;SDS011;76633;45.642;12.198;2024-02-21T10:48:29;5.05;;;4.25;;
50575;SDS011;76633;45.642;12.198;2024-02-21T10:51:03;6.80;;;4.22;;
50575;SDS011;76633;45.642;12.198;2024-02-21T10:56:55;3.90;;;3.50;;
50575;SDS011;76633;45.642;12.198;2024-02-21T10:59:23;4.10;;;3.80;;
50575;SDS011;76633;45.642;12.198;2024-02-21T11:01:51;4.10;;;3.80;;
50575;SDS011;76633;45.642;12.198;2024-02-21T11:04:17;5.03;;;3.30;;
50575;SDS011;76633;45.642;12.198;2024-02-21T11:06:43;4.00;;;3.67;;
50575;SDS011;76633;45.642;12.198;2024-02-21T11:09:10;4.32;;;4.00;;
50575;SDS011;76633;45.642;12.198;2024-02-21T11:11:40;4.30;;;4.00;;
50575;SDS011;76633;45.642;12.198;2024-02-21T11:16:38;4.20;;;3.78;;
50575;SDS011;76633;45.642;12.198;2024-02-21T11:21:46;4.25;;;3.85;;
50575;SDS011;76633;45.642;12.198;2024-02-21T11:29:46;4.28;;;3.90;;
50575;SDS011;76633;45.642;12.198;2024-02-21T11:32:20;4.18;;;3.70;;
50575;SDS011;76633;45.642;12.198;2024-02-21T11:34:53;4.07;;;3.67;;
50575;SDS011;76633;45.642;12.198;2024-02-21T11:37:27;5.82;;;3.70;;
50575;SDS011;76633;45.642;12.198;2024-02-21T11:39:56;3.92;;;3.63;;
50575;SDS011;76633;45.642;12.198;2024-02-21T11:42:22;4.25;;;3.75;;
50575;SDS011;76633;45.642;12.198;2024-02-21T11:44:49;6.97;;;6.38;;
50575;SDS011;76633;45.642;12.198;2024-02-21T11:47:15;5.18;;;4.68;;
50575;SDS011;76633;45.642;12.198;2024-02-21T11:49:46;4.95;;;3.70;;
50575;SDS011;76633;45.642;12.198;2024-02-21T11:52:14;3.85;;;3.58;;
50575;SDS011;76633;45.642;12.198;2024-02-21T11:54:41;4.35;;;4.03;;
50575;SDS011;76633;45.642;12.198;2024-02-21T11:57:07;4.18;;;3.88;;
50575;SDS011;76633;45.642;12.198;2024-02-21T11:59:33;4.85;;;4.45;;
50575;SDS011;76633;45.642;12.198;2024-02-21T12:01:59;4.07;;;3.88;;
50575;SDS011;76633;45.642;12.198;2024-02-21T12:04:26;4.15;;;3.80;;
50575;SDS011;76633;45.642;12.198;2024-02-21T12:06:54;4.05;;;3.75;;
50575;SDS011;76633;45.642;12.198;2024-02-21T12:09:22;5.65;;;3.80;;
50575;SDS011;76633;45.642;12.198;2024-02-21T12:11:56;3.97;;;3.67;;
50575;SDS011;76633;45.642;12.198;2024-02-21T12:14:24;4.93;;;4.43;;
50575;SDS011;76633;45.642;12.198;2024-02-21T12:16:50;4.63;;;4.32;;
50575;SDS011;76633;45.642;12.198;2024-02-21T12:19:16;4.43;;;4.13;;
50575;SDS011;76633;45.642;12.198;2024-02-21T12:21:42;4.25;;;3.85;;
50575;SDS011;76633;45.642;12.198;2024-02-21T12:24:15;5.30;;;4.07;;
50575;SDS011;76633;45.642;12.198;2024-02-21T12:26:45;4.70;;;4.30;;
50575;SDS011;76633;45.642;12.198;2024-02-21T12:29:11;4.85;;;4.50;;
50575;SDS011;76633;45.642;12.198;2024-02-21T12:31:37;5.20;;;4.70;;
50575;SDS011;76633;45.642;12.198;2024-02-21T12:34:04;4.25;;;3.95;;
50575;SDS011;76633;45.642;12.198;2024-02-21T12:36:33;4.78;;;4.40;;
50575;SDS011;76633;45.642;12.198;2024-02-21T12:38:59;5.50;;;5.10;;
50575;SDS011;76633;45.642;12.198;2024-02-21T12:41:26;5.45;;;5.05;;
50575;SDS011;76633;45.642;12.198;2024-02-21T12:43:53;5.25;;;4.82;;
50575;SDS011;76633;45.642;12.198;2024-02-21T12:46:18;5.47;;;5.07;;
50575;SDS011;76633;45.642;12.198;2024-02-21T12:48:44;5.85;;;5.32;;
50575;SDS011;76633;45.642;12.198;2024-02-21T12:51:10;5.25;;;4.90;;
50575;SDS011;76633;45.642;12.198;2024-02-21T12:53:36;5.18;;;4.72;;
50575;SDS011;76633;45.642;12.198;2024-02-21T12:56:01;5.13;;;4.72;;
50575;SDS011;76633;45.642;12.198;2024-02-21T12:58:30;6.60;;;5.80;;
50575;SDS011;76633;45.642;12.198;2024-02-21T13:00:56;5.80;;;5.40;;
50575;SDS011;76633;45.642;12.198;2024-02-21T13:03:22;6.57;;;5.95;;
50575;SDS011;76633;45.642;12.198;2024-02-21T13:05:48;5.28;;;4.88;;
50575;SDS011;76633;45.642;12.198;2024-02-21T13:08:13;5.22;;;4.90;;
50575;SDS011;76633;45.642;12.198;2024-02-21T13:10:39;5.50;;;5.00;;
50575;SDS011;76633;45.642;12.198;2024-02-21T13:13:05;11.82;;;10.82;;
50575;SDS011;76633;45.642;12.198;2024-02-21T13:15:31;13.23;;;12.18;;
50575;SDS011;76633;45.642;12.198;2024-02-21T13:17:57;12.90;;;11.77;;
50575;SDS011;76633;45.642;12.198;2024-02-21T13:20:25;10.02;;;9.25;;
50575;SDS011;76633;45.642;12.198;2024-02-21T13:22:52;12.88;;;11.88;;
50575;SDS011;76633;45.642;12.198;2024-02-21T13:25:17;14.48;;;13.38;;
50575;SDS011;76633;45.642;12.198;2024-02-21T13:27:45;12.95;;;12.05;;
50575;SDS011;76633;45.642;12.198;2024-02-21T13:30:12;11.60;;;10.70;;
50575;SDS011;76633;45.642;12.198;2024-02-21T13:32:40;10.48;;;9.68;;
50575;SDS011;76633;45.642;12.198;2024-02-21T13:35:11;11.32;;;10.52;;
50575;SDS011;76633;45.642;12.198;2024-02-21T13:37:38;12.52;;;11.63;;
50575;SDS011;76633;45.642;12.198;2024-02-21T13:40:04;12.95;;;11.90;;
50575;SDS011;76633;45.642;12.198;2024-02-21T13:42:34;14.95;;;13.85;;
50575;SDS011;76633;45.642;12.198;2024-02-21T13:44:59;16.20;;;14.98;;
50575;SDS011;76633;45.642;12.198;2024-02-21T13:47:26;19.30;;;17.80;;
50575;SDS011;76633;45.642;12.198;2024-02-21T13:49:51;17.77;;;16.25;;
50575;SDS011;76633;45.642;12.198;2024-02-21T13:52:17;17.15;;;15.90;;
50575;SDS011;76633;45.642;12.198;2024-02-21T13:54:46;16.95;;;15.65;;
50575;SDS011;76633;45.642;12.198;2024-02-21T13:57:12;17.55;;;16.05;;
50575;SDS011;76633;45.642;12.198;2024-02-21T13:59:37;17.13;;;15.93;;
50575;SDS011;76633;45.642;12.198;2024-02-21T14:02:04;18.90;;;17.30;;
50575;SDS011;76633;45.642;12.198;2024-02-21T14:04:33;15.75;;;14.45;;
50575;SDS011;76633;45.642;12.198;2024-02-21T14:06:59;18.52;;;17.05;;
50575;SDS011;76633;45.642;12.198;2024-02-21T14:09:25;18.42;;;17.02;;
50575;SDS011;76633;45.642;12.198;2024-02-21T14:11:51;19.55;;;17.98;;
50575;SDS011;76633;45.642;12.198;2024-02-21T14:14:17;17.80;;;16.50;;
50575;SDS011;76633;45.642;12.198;2024-02-21T14:16:43;18.65;;;17.15;;
50575;SDS011;76633;45.642;12.198;2024-02-21T14:19:08;20.38;;;18.90;;
50575;SDS011;76633;45.642;12.198;2024-02-21T14:21:35;21.30;;;19.67;;
50575;SDS011;76633;45.642;12.198;2024-02-21T14:24:02;23.73;;;21.92;;
50575;SDS011;76633;45.642;12.198;2024-02-21T14:26:31;25.88;;;23.95;;
50575;SDS011;76633;45.642;12.198;2024-02-21T14:28:57;27.30;;;25.13;;
50575;SDS011;76633;45.642;12.198;2024-02-21T14:31:23;28.88;;;26.50;;
50575;SDS011;76633;45.642;12.198;2024-02-21T14:33:50;27.63;;;24.92;;